الصفحة الرئيسية
METAR-TAF:

METAR-TAF

مطار :

مايدوغوري, نيجيريا

دائرة عرض: 11-51N, خط طول: 013-05E, ارتفاع: 354 متر

مراقبة الطقس الحالي

تاريخ ووقت الإصدار 13ساعات و 58 دقيقة قبل الساعة 07:00UTC
ريح 4 عقدة من الغرب/الشمال الغربي
درجة الحرارة 16°درجة مئوية
الرطوبة 25%
ضغط 1015 hPa
الرؤية: 5000 متر
العجاج

METAR: DNMA 130700Z 30004KT 5000 HZ NSC 16/M04 Q1015

زمن: 21:58 (20:58 UTC)

توقعات

تاريخ ووقت الإصدار 3ساعات و 58 دقيقة قبل الساعة 17:00UTC
التوقعات صالحة من13 الساعة 18 UTC إلى 14 الساعة 24 UTC
ريح 8 عقدة من الشمال الشرقي
الرؤية 10 كم أو أكثر
الغيوم لا تقل 1500 م ولا وجود لمزنة ركامية السحاب الأسود
مؤقت
من 14 الساعة 04 UTC إلى 14 الساعة 10 UTC
الرؤية: 5000 متر
العجاج

TAF: DNMA 131700Z 1318/1424 05008KT CAVOK TEMPO 1404/1410 5000 HZ

أرصاد الطقس والتوقعات من أكثر من 4000 مطار (تقارير الطقس للمطار METAR والتنبؤ بالطقس بالمطارTAF).

المحطات المتاحة هي النقط الصفراء والحمراء على الخريطة.

حرك المؤشر فوق النقطة لمعرفة اسم المحطة.

ثم انقر لمعرفة أرصاد وتوقعات الطقس.

لتغيير الخارطة: اضغط على الأزرار الخضراء مع رمز الصليب الأسود للتكبير. على الزر الأخضر مع شرطة للتصغير، أو على الأسهم الخضراء للخرائط المجاورة.


METAR-TAF: